sensor_id;sensor_type;location;lat;lon;timestamp;temperature;humidity
11264;DHT22;5689;48.798;9.070;2024-02-04T00:02:13;8.60;99.90
11264;DHT22;5689;48.798;9.070;2024-02-04T00:04:42;8.50;99.90
11264;DHT22;5689;48.798;9.070;2024-02-04T00:07:10;8.50;99.90
11264;DHT22;5689;48.798;9.070;2024-02-04T00:09:38;8.50;99.90
11264;DHT22;5689;48.798;9.070;2024-02-04T00:12:08;8.50;99.90
11264;DHT22;5689;48.798;9.070;2024-02-04T00:14:36;8.40;99.90
11264;DHT22;5689;48.798;9.070;2024-02-04T00:17:05;8.30;99.90
11264;DHT22;5689;48.798;9.070;2024-02-04T00:19:33;8.30;99.90
11264;DHT22;5689;48.798;9.070;2024-02-04T00:22:01;8.30;99.90
11264;DHT22;5689;48.798;9.070;2024-02-04T00:24:29;8.30;99.90
11264;DHT22;5689;48.798;9.070;2024-02-04T00:26:57;8.30;99.90
11264;DHT22;5689;48.798;9.070;2024-02-04T00:29:26;8.30;99.90
11264;DHT22;5689;48.798;9.070;2024-02-04T00:31:54;8.20;99.90
11264;DHT22;5689;48.798;9.070;2024-02-04T00:34:22;8.10;99.90
11264;DHT22;5689;48.798;9.070;2024-02-04T00:36:50;8.10;99.90
11264;DHT22;5689;48.798;9.070;2024-02-04T00:39:19;8.10;99.90
11264;DHT22;5689;48.798;9.070;2024-02-04T00:41:47;8.00;99.90
11264;DHT22;5689;48.798;9.070;2024-02-04T00:44:15;8.00;99.90
11264;DHT22;5689;48.798;9.070;2024-02-04T00:46:44;8.00;99.90
11264;DHT22;5689;48.798;9.070;2024-02-04T00:49:12;8.00;99.90
11264;DHT22;5689;48.798;9.070;2024-02-04T00:51:40;7.90;99.90
11264;DHT22;5689;48.798;9.070;2024-02-04T00:54:10;7.90;99.90
11264;DHT22;5689;48.798;9.070;2024-02-04T00:56:38;7.90;99.90
11264;DHT22;5689;48.798;9.070;2024-02-04T00:59:06;7.90;99.90
11264;DHT22;5689;48.798;9.070;2024-02-04T01:01:34;7.80;99.90
11264;DHT22;5689;48.798;9.070;2024-02-04T01:04:04;7.80;99.90
11264;DHT22;5689;48.798;9.070;2024-02-04T01:06:32;7.90;99.90
11264;DHT22;5689;48.798;9.070;2024-02-04T01:09:03;7.90;99.90
11264;DHT22;5689;48.798;9.070;2024-02-04T01:11:31;7.90;99.90
11264;DHT22;5689;48.798;9.070;2024-02-04T01:13:59;7.90;99.90
11264;DHT22;5689;48.798;9.070;2024-02-04T01:16:27;7.90;99.90
11264;DHT22;5689;48.798;9.070;2024-02-04T01:18:56;7.90;99.90
11264;DHT22;5689;48.798;9.070;2024-02-04T01:21:25;7.80;99.90
11264;DHT22;5689;48.798;9.070;2024-02-04T01:23:54;7.80;99.90
11264;DHT22;5689;48.798;9.070;2024-02-04T01:26:22;7.80;99.90
11264;DHT22;5689;48.798;9.070;2024-02-04T01:28:51;7.80;99.90
11264;DHT22;5689;48.798;9.070;2024-02-04T01:31:19;7.70;99.90
11264;DHT22;5689;48.798;9.070;2024-02-04T01:33:47;7.60;99.90
11264;DHT22;5689;48.798;9.070;2024-02-04T01:36:16;7.60;99.90
11264;DHT22;5689;48.798;9.070;2024-02-04T01:38:46;7.40;99.90
11264;DHT22;5689;48.798;9.070;2024-02-04T01:41:14;7.40;99.90
11264;DHT22;5689;48.798;9.070;2024-02-04T01:43:42;7.40;99.90
11264;DHT22;5689;48.798;9.070;2024-02-04T01:46:11;7.40;99.90
11264;DHT22;5689;48.798;9.070;2024-02-04T01:48:39;7.40;99.90
11264;DHT22;5689;48.798;9.070;2024-02-04T01:51:08;7.40;99.90
11264;DHT22;5689;48.798;9.070;2024-02-04T01:53:36;7.40;99.90
11264;DHT22;5689;48.798;9.070;2024-02-04T01:56:08;7.50;99.90
11264;DHT22;5689;48.798;9.070;2024-02-04T01:58:36;7.60;99.90
11264;DHT22;5689;48.798;9.070;2024-02-04T02:01:04;7.70;99.90
11264;DHT22;5689;48.798;9.070;2024-02-04T02:03:33;7.60;99.90
11264;DHT22;5689;48.798;9.070;2024-02-04T02:06:01;7.70;99.90
11264;DHT22;5689;48.798;9.070;2024-02-04T02:08:29;7.70;99.90
11264;DHT22;5689;48.798;9.070;2024-02-04T02:11:04;7.80;99.90
11264;DHT22;5689;48.798;9.070;2024-02-04T02:13:36;7.80;99.90
11264;DHT22;5689;48.798;9.070;2024-02-04T02:16:08;7.80;99.90
11264;DHT22;5689;48.798;9.070;2024-02-04T02:18:41;7.70;99.90
11264;DHT22;5689;48.798;9.070;2024-02-04T02:21:25;7.70;99.90
11264;DHT22;5689;48.798;9.070;2024-02-04T02:24:03;7.70;99.90
11264;DHT22;5689;48.798;9.070;2024-02-04T02:26:33;7.50;99.90
11264;DHT22;5689;48.798;9.070;2024-02-04T02:29:05;7.50;99.90
11264;DHT22;5689;48.798;9.070;2024-02-04T02:31:35;7.50;99.90
11264;DHT22;5689;48.798;9.070;2024-02-04T02:34:06;7.50;99.90
11264;DHT22;5689;48.798;9.070;2024-02-04T02:36:40;7.60;99.90
11264;DHT22;5689;48.798;9.070;2024-02-04T02:39:15;7.80;99.90
11264;DHT22;5689;48.798;9.070;2024-02-04T02:41:49;7.80;99.90
11264;DHT22;5689;48.798;9.070;2024-02-04T02:44:19;7.70;99.90
11264;DHT22;5689;48.798;9.070;2024-02-04T02:46:48;7.80;99.90
11264;DHT22;5689;48.798;9.070;2024-02-04T02:49:17;7.80;99.90
11264;DHT22;5689;48.798;9.070;2024-02-04T02:51:45;7.90;99.90
11264;DHT22;5689;48.798;9.070;2024-02-04T02:54:13;7.90;99.90
11264;DHT22;5689;48.798;9.070;2024-02-04T02:56:41;7.90;99.90
11264;DHT22;5689;48.798;9.070;2024-02-04T02:59:11;7.90;99.90
11264;DHT22;5689;48.798;9.070;2024-02-04T03:01:39;8.00;99.90
11264;DHT22;5689;48.798;9.070;2024-02-04T03:04:08;7.90;99.90
11264;DHT22;5689;48.798;9.070;2024-02-04T03:06:36;8.00;99.90
11264;DHT22;5689;48.798;9.070;2024-02-04T03:09:04;8.00;99.90
11264;DHT22;5689;48.798;9.070;2024-02-04T03:11:33;8.00;99.90
11264;DHT22;5689;48.798;9.070;2024-02-04T03:14:03;8.00;99.90
11264;DHT22;5689;48.798;9.070;2024-02-04T03:16:32;8.00;99.90
11264;DHT22;5689;48.798;9.070;2024-02-04T03:19:05;8.00;99.90
11264;DHT22;5689;48.798;9.070;2024-02-04T03:21:33;8.10;99.90
11264;DHT22;5689;48.798;9.070;2024-02-04T03:24:01;8.10;99.90
11264;DHT22;5689;48.798;9.070;2024-02-04T03:26:29;8.00;99.90
11264;DHT22;5689;48.798;9.070;2024-02-04T03:28:57;8.00;99.90
11264;DHT22;5689;48.798;9.070;2024-02-04T03:31:26;8.00;99.90
11264;DHT22;5689;48.798;9.070;2024-02-04T03:33:56;8.10;99.90
11264;DHT22;5689;48.798;9.070;2024-02-04T03:36:24;8.20;99.90
11264;DHT22;5689;48.798;9.070;2024-02-04T03:38:53;8.20;99.90
11264;DHT22;5689;48.798;9.070;2024-02-04T03:41:21;8.20;99.90
11264;DHT22;5689;48.798;9.070;2024-02-04T03:43:49;8.20;99.90
11264;DHT22;5689;48.798;9.070;2024-02-04T03:46:17;8.20;99.90
11264;DHT22;5689;48.798;9.070;2024-02-04T03:48:46;8.20;99.90
11264;DHT22;5689;48.798;9.070;2024-02-04T03:51:19;8.20;99.90
11264;DHT22;5689;48.798;9.070;2024-02-04T03:53:48;8.20;99.90
11264;DHT22;5689;48.798;9.070;2024-02-04T03:56:17;8.10;99.90
11264;DHT22;5689;48.798;9.070;2024-02-04T03:58:46;8.10;99.90
11264;DHT22;5689;48.798;9.070;2024-02-04T04:01:14;8.20;99.90
11264;DHT22;5689;48.798;9.070;2024-02-04T04:03:42;8.10;99.90
11264;DHT22;5689;48.798;9.070;2024-02-04T04:06:11;8.10;99.90
11264;DHT22;5689;48.798;9.070;2024-02-04T04:08:41;8.10;99.90
11264;DHT22;5689;48.798;9.070;2024-02-04T04:11:10;8.00;99.90
11264;DHT22;5689;48.798;9.070;2024-02-04T04:13:38;8.10;99.90
11264;DHT22;5689;48.798;9.070;2024-02-04T04:16:07;8.10;99.90
11264;DHT22;5689;48.798;9.070;2024-02-04T04:18:35;8.10;99.90
11264;DHT22;5689;48.798;9.070;2024-02-04T04:21:03;8.20;99.90
11264;DHT22;5689;48.798;9.070;2024-02-04T04:23:31;8.20;99.90
11264;DHT22;5689;48.798;9.070;2024-02-04T04:26:01;8.20;99.90
11264;DHT22;5689;48.798;9.070;2024-02-04T04:28:29;8.20;99.90
11264;DHT22;5689;48.798;9.070;2024-02-04T04:30:57;8.30;99.90
11264;DHT22;5689;48.798;9.070;2024-02-04T04:33:25;8.30;99.90
11264;DHT22;5689;48.798;9.070;2024-02-04T04:35:54;8.00;99.90
11264;DHT22;5689;48.798;9.070;2024-02-04T04:38:22;7.90;99.90
11264;DHT22;5689;48.798;9.070;2024-02-04T04:40:50;7.90;99.90
11264;DHT22;5689;48.798;9.070;2024-02-04T04:43:19;7.90;99.90
11264;DHT22;5689;48.798;9.070;2024-02-04T04:45:48;7.90;99.90
11264;DHT22;5689;48.798;9.070;2024-02-04T04:48:16;8.10;99.90
11264;DHT22;5689;48.798;9.070;2024-02-04T04:50:44;8.10;99.90
11264;DHT22;5689;48.798;9.070;2024-02-04T04:53:12;8.10;99.90
11264;DHT22;5689;48.798;9.070;2024-02-04T04:55:40;8.20;99.90
11264;DHT22;5689;48.798;9.070;2024-02-04T04:58:08;8.10;99.90
11264;DHT22;5689;48.798;9.070;2024-02-04T05:00:38;8.20;99.90
11264;DHT22;5689;48.798;9.070;2024-02-04T05:03:06;8.20;99.90
11264;DHT22;5689;48.798;9.070;2024-02-04T05:05:34;8.20;99.90
11264;DHT22;5689;48.798;9.070;2024-02-04T05:08:03;8.10;99.90
11264;DHT22;5689;48.798;9.070;2024-02-04T05:10:31;8.20;99.90
11264;DHT22;5689;48.798;9.070;2024-02-04T05:12:59;8.20;99.90
11264;DHT22;5689;48.798;9.070;2024-02-04T05:15:27;8.20;99.90
11264;DHT22;5689;48.798;9.070;2024-02-04T05:17:58;8.20;99.90
11264;DHT22;5689;48.798;9.070;2024-02-04T05:20:26;8.20;99.90
11264;DHT22;5689;48.798;9.070;2024-02-04T05:22:55;8.20;99.90
11264;DHT22;5689;48.798;9.070;2024-02-04T05:25:24;8.30;99.90
11264;DHT22;5689;48.798;9.070;2024-02-04T05:27:53;8.30;99.90
11264;DHT22;5689;48.798;9.070;2024-02-04T05:30:21;8.10;99.90
11264;DHT22;5689;48.798;9.070;2024-02-04T05:32:49;8.10;99.90
11264;DHT22;5689;48.798;9.070;2024-02-04T05:35:19;8.20;99.90
11264;DHT22;5689;48.798;9.070;2024-02-04T05:37:47;8.20;99.90
11264;DHT22;5689;48.798;9.070;2024-02-04T05:40:15;8.20;99.90
11264;DHT22;5689;48.798;9.070;2024-02-04T05:42:45;8.20;99.90
11264;DHT22;5689;48.798;9.070;2024-02-04T05:45:13;8.20;99.90
11264;DHT22;5689;48.798;9.070;2024-02-04T05:47:42;8.20;99.90
11264;DHT22;5689;48.798;9.070;2024-02-04T05:50:10;8.10;99.90
11264;DHT22;5689;48.798;9.070;2024-02-04T05:52:40;8.10;99.90
11264;DHT22;5689;48.798;9.070;2024-02-04T05:55:10;8.20;99.90
11264;DHT22;5689;48.798;9.070;2024-02-04T05:57:38;8.20;99.90
11264;DHT22;5689;48.798;9.070;2024-02-04T06:00:07;8.20;99.90
11264;DHT22;5689;48.798;9.070;2024-02-04T06:02:36;8.30;99.90
11264;DHT22;5689;48.798;9.070;2024-02-04T06:05:05;8.30;99.90
11264;DHT22;5689;48.798;9.070;2024-02-04T06:07:33;8.20;99.90
11264;DHT22;5689;48.798;9.070;2024-02-04T06:10:03;8.30;99.90
11264;DHT22;5689;48.798;9.070;2024-02-04T06:12:31;8.20;99.90
11264;DHT22;5689;48.798;9.070;2024-02-04T06:14:59;8.30;99.90
11264;DHT22;5689;48.798;9.070;2024-02-04T06:17:27;8.40;99.90
11264;DHT22;5689;48.798;9.070;2024-02-04T06:19:55;8.40;99.90
11264;DHT22;5689;48.798;9.070;2024-02-04T06:22:24;8.30;99.90
11264;DHT22;5689;48.798;9.070;2024-02-04T06:24:52;8.30;99.90
11264;DHT22;5689;48.798;9.070;2024-02-04T06:27:22;8.40;99.90
11264;DHT22;5689;48.798;9.070;2024-02-04T06:29:50;8.30;99.90
11264;DHT22;5689;48.798;9.070;2024-02-04T06:32:18;8.30;99.90
11264;DHT22;5689;48.798;9.070;2024-02-04T06:34:47;8.30;99.90
11264;DHT22;5689;48.798;9.070;2024-02-04T06:37:15;8.30;99.90
11264;DHT22;5689;48.798;9.070;2024-02-04T06:39:44;8.30;99.90
11264;DHT22;5689;48.798;9.070;2024-02-04T06:42:12;8.20;99.90
11264;DHT22;5689;48.798;9.070;2024-02-04T06:44:43;8.10;99.90
11264;DHT22;5689;48.798;9.070;2024-02-04T06:47:11;8.10;99.90
11264;DHT22;5689;48.798;9.070;2024-02-04T06:49:43;8.00;99.90
11264;DHT22;5689;48.798;9.070;2024-02-04T06:52:12;8.00;99.90
11264;DHT22;5689;48.798;9.070;2024-02-04T06:54:40;8.00;99.90
11264;DHT22;5689;48.798;9.070;2024-02-04T06:57:09;8.00;99.90
11264;DHT22;5689;48.798;9.070;2024-02-04T06:59:37;8.10;99.90
11264;DHT22;5689;48.798;9.070;2024-02-04T07:02:07;8.10;99.90
11264;DHT22;5689;48.798;9.070;2024-02-04T07:04:35;8.00;99.90
11264;DHT22;5689;48.798;9.070;2024-02-04T07:07:03;8.10;99.90
11264;DHT22;5689;48.798;9.070;2024-02-04T07:09:31;8.10;99.90
11264;DHT22;5689;48.798;9.070;2024-02-04T07:11:59;8.10;99.90
11264;DHT22;5689;48.798;9.070;2024-02-04T07:14:28;8.10;99.90
11264;DHT22;5689;48.798;9.070;2024-02-04T07:16:56;8.10;99.90
11264;DHT22;5689;48.798;9.070;2024-02-04T07:19:25;8.10;99.90
11264;DHT22;5689;48.798;9.070;2024-02-04T07:21:53;8.10;99.90
11264;DHT22;5689;48.798;9.070;2024-02-04T07:24:22;8.20;99.90
11264;DHT22;5689;48.798;9.070;2024-02-04T07:26:50;8.20;99.90
11264;DHT22;5689;48.798;9.070;2024-02-04T07:29:18;8.20;99.90
11264;DHT22;5689;48.798;9.070;2024-02-04T07:31:46;8.20;99.90
11264;DHT22;5689;48.798;9.070;2024-02-04T07:34:15;8.30;99.90
11264;DHT22;5689;48.798;9.070;2024-02-04T07:36:44;8.40;99.90
11264;DHT22;5689;48.798;9.070;2024-02-04T07:39:12;8.40;99.90
11264;DHT22;5689;48.798;9.070;2024-02-04T07:41:41;8.40;99.90
11264;DHT22;5689;48.798;9.070;2024-02-04T07:44:09;8.40;99.90
11264;DHT22;5689;48.798;9.070;2024-02-04T07:46:37;8.50;99.90
11264;DHT22;5689;48.798;9.070;2024-02-04T07:49:06;8.60;99.90
11264;DHT22;5689;48.798;9.070;2024-02-04T07:51:34;8.70;99.90
11264;DHT22;5689;48.798;9.070;2024-02-04T07:54:04;8.80;99.90
11264;DHT22;5689;48.798;9.070;2024-02-04T07:56:32;8.70;99.90
11264;DHT22;5689;48.798;9.070;2024-02-04T07:59:00;8.90;99.90
11264;DHT22;5689;48.798;9.070;2024-02-04T08:01:30;9.00;99.90
11264;DHT22;5689;48.798;9.070;2024-02-04T08:03:58;9.00;99.90
11264;DHT22;5689;48.798;9.070;2024-02-04T08:06:27;9.10;99.90
11264;DHT22;5689;48.798;9.070;2024-02-04T08:08:55;9.10;99.90
11264;DHT22;5689;48.798;9.070;2024-02-04T08:11:25;9.00;99.90
11264;DHT22;5689;48.798;9.070;2024-02-04T08:13:53;9.10;99.90
11264;DHT22;5689;48.798;9.070;2024-02-04T08:16:21;9.20;99.90
11264;DHT22;5689;48.798;9.070;2024-02-04T08:18:49;9.10;99.90
11264;DHT22;5689;48.798;9.070;2024-02-04T08:21:17;9.10;99.90
11264;DHT22;5689;48.798;9.070;2024-02-04T08:23:46;9.10;99.90
11264;DHT22;5689;48.798;9.070;2024-02-04T08:26:14;9.20;99.90
11264;DHT22;5689;48.798;9.070;2024-02-04T08:28:43;9.20;99.90
11264;DHT22;5689;48.798;9.070;2024-02-04T08:31:12;9.50;99.90
11264;DHT22;5689;48.798;9.070;2024-02-04T08:33:40;9.50;99.90
11264;DHT22;5689;48.798;9.070;2024-02-04T08:36:08;9.70;99.90
11264;DHT22;5689;48.798;9.070;2024-02-04T08:38:38;9.70;99.90
11264;DHT22;5689;48.798;9.070;2024-02-04T08:41:06;9.70;99.90
11264;DHT22;5689;48.798;9.070;2024-02-04T08:43:35;9.60;99.90
11264;DHT22;5689;48.798;9.070;2024-02-04T08:46:05;9.80;99.90
11264;DHT22;5689;48.798;9.070;2024-02-04T08:48:33;9.70;99.90
11264;DHT22;5689;48.798;9.070;2024-02-04T08:51:03;10.00;99.90
11264;DHT22;5689;48.798;9.070;2024-02-04T08:53:32;10.20;99.90
11264;DHT22;5689;48.798;9.070;2024-02-04T08:56:00;10.60;99.90
11264;DHT22;5689;48.798;9.070;2024-02-04T08:58:28;10.70;99.90
11264;DHT22;5689;48.798;9.070;2024-02-04T09:00:56;10.90;99.90
11264;DHT22;5689;48.798;9.070;2024-02-04T09:03:27;10.90;99.90
11264;DHT22;5689;48.798;9.070;2024-02-04T09:05:56;10.90;99.90
11264;DHT22;5689;48.798;9.070;2024-02-04T09:08:24;10.80;99.90
11264;DHT22;5689;48.798;9.070;2024-02-04T09:10:52;11.20;99.90
11264;DHT22;5689;48.798;9.070;2024-02-04T09:13:20;11.00;99.90
11264;DHT22;5689;48.798;9.070;2024-02-04T09:15:49;11.20;99.90
11264;DHT22;5689;48.798;9.070;2024-02-04T09:18:18;11.20;99.90
11264;DHT22;5689;48.798;9.070;2024-02-04T09:20:48;11.30;99.90
11264;DHT22;5689;48.798;9.070;2024-02-04T09:23:17;11.30;99.90
11264;DHT22;5689;48.798;9.070;2024-02-04T09:25:45;11.00;99.90
11264;DHT22;5689;48.798;9.070;2024-02-04T09:28:13;11.40;99.90
11264;DHT22;5689;48.798;9.070;2024-02-04T09:30:41;11.60;99.90
11264;DHT22;5689;48.798;9.070;2024-02-04T09:33:10;11.50;99.90
11264;DHT22;5689;48.798;9.070;2024-02-04T09:35:38;10.80;99.90
11264;DHT22;5689;48.798;9.070;2024-02-04T09:38:08;11.10;99.90
11264;DHT22;5689;48.798;9.070;2024-02-04T09:40:37;11.70;99.90
11264;DHT22;5689;48.798;9.070;2024-02-04T09:43:05;11.40;99.90
11264;DHT22;5689;48.798;9.070;2024-02-04T09:45:35;12.00;99.90
11264;DHT22;5689;48.798;9.070;2024-02-04T09:48:04;12.90;99.90
11264;DHT22;5689;48.798;9.070;2024-02-04T09:50:34;13.80;99.90
11264;DHT22;5689;48.798;9.070;2024-02-04T09:53:03;13.40;99.90
11264;DHT22;5689;48.798;9.070;2024-02-04T09:55:38;14.30;99.90
11264;DHT22;5689;48.798;9.070;2024-02-04T09:58:07;14.50;99.90
11264;DHT22;5689;48.798;9.070;2024-02-04T10:00:38;13.60;99.90
11264;DHT22;5689;48.798;9.070;2024-02-04T10:03:07;14.00;99.90
11264;DHT22;5689;48.798;9.070;2024-02-04T10:05:36;14.00;99.90
11264;DHT22;5689;48.798;9.070;2024-02-04T10:08:05;13.80;99.90
11264;DHT22;5689;48.798;9.070;2024-02-04T10:10:37;14.80;99.90
11264;DHT22;5689;48.798;9.070;2024-02-04T10:13:07;16.40;98.30
11264;DHT22;5689;48.798;9.070;2024-02-04T10:15:36;15.80;98.20
11264;DHT22;5689;48.798;9.070;2024-02-04T10:18:05;16.10;97.10
11264;DHT22;5689;48.798;9.070;2024-02-04T10:20:34;16.00;96.90
11264;DHT22;5689;48.798;9.070;2024-02-04T10:23:03;16.00;96.80
11264;DHT22;5689;48.798;9.070;2024-02-04T10:25:31;16.00;95.80
11264;DHT22;5689;48.798;9.070;2024-02-04T10:28:01;16.00;96.20
11264;DHT22;5689;48.798;9.070;2024-02-04T10:30:29;15.90;95.80
11264;DHT22;5689;48.798;9.070;2024-02-04T10:32:59;16.00;95.60
11264;DHT22;5689;48.798;9.070;2024-02-04T10:35:27;14.90;96.70
11264;DHT22;5689;48.798;9.070;2024-02-04T10:37:55;15.00;97.10
11264;DHT22;5689;48.798;9.070;2024-02-04T10:40:23;13.90;98.70
11264;DHT22;5689;48.798;9.070;2024-02-04T10:42:56;13.00;99.90
11264;DHT22;5689;48.798;9.070;2024-02-04T10:45:30;14.10;99.30
11264;DHT22;5689;48.798;9.070;2024-02-04T10:48:01;14.00;99.70
11264;DHT22;5689;48.798;9.070;2024-02-04T10:50:31;14.10;99.40
11264;DHT22;5689;48.798;9.070;2024-02-04T10:53:04;14.40;99.60
11264;DHT22;5689;48.798;9.070;2024-02-04T10:55:39;15.40;98.50
11264;DHT22;5689;48.798;9.070;2024-02-04T10:58:09;16.10;97.00
11264;DHT22;5689;48.798;9.070;2024-02-04T11:00:42;16.60;96.10
11264;DHT22;5689;48.798;9.070;2024-02-04T11:03:12;16.00;96.20
11264;DHT22;5689;48.798;9.070;2024-02-04T11:05:42;15.80;95.80
11264;DHT22;5689;48.798;9.070;2024-02-04T11:08:12;15.50;96.50
11264;DHT22;5689;48.798;9.070;2024-02-04T11:10:41;17.20;94.20
11264;DHT22;5689;48.798;9.070;2024-02-04T11:13:10;17.40;93.20
11264;DHT22;5689;48.798;9.070;2024-02-04T11:15:41;17.50;92.90
11264;DHT22;5689;48.798;9.070;2024-02-04T11:18:45;18.00;92.50
11264;DHT22;5689;48.798;9.070;2024-02-04T11:21:46;18.30;91.90
11264;DHT22;5689;48.798;9.070;2024-02-04T11:24:40;16.30;93.80
11264;DHT22;5689;48.798;9.070;2024-02-04T11:27:10;14.60;96.10
11264;DHT22;5689;48.798;9.070;2024-02-04T11:29:39;14.20;97.10
11264;DHT22;5689;48.798;9.070;2024-02-04T11:32:09;14.60;96.60
11264;DHT22;5689;48.798;9.070;2024-02-04T11:34:37;14.00;97.50
11264;DHT22;5689;48.798;9.070;2024-02-04T11:37:15;13.70;98.00
11264;DHT22;5689;48.798;9.070;2024-02-04T11:39:50;13.00;99.50
11264;DHT22;5689;48.798;9.070;2024-02-04T11:42:18;12.70;99.90
11264;DHT22;5689;48.798;9.070;2024-02-04T11:44:47;13.00;99.90
11264;DHT22;5689;48.798;9.070;2024-02-04T11:47:24;13.70;99.70
11264;DHT22;5689;48.798;9.070;2024-02-04T11:49:58;14.90;97.40
11264;DHT22;5689;48.798;9.070;2024-02-04T11:52:27;15.30;96.90
11264;DHT22;5689;48.798;9.070;2024-02-04T11:54:55;15.80;95.80
11264;DHT22;5689;48.798;9.070;2024-02-04T11:57:24;15.00;96.30
11264;DHT22;5689;48.798;9.070;2024-02-04T11:59:54;14.40;97.00
11264;DHT22;5689;48.798;9.070;2024-02-04T12:02:23;13.50;98.50
11264;DHT22;5689;48.798;9.070;2024-02-04T12:04:52;12.90;99.60
11264;DHT22;5689;48.798;9.070;2024-02-04T12:07:21;13.10;99.90
11264;DHT22;5689;48.798;9.070;2024-02-04T12:09:50;15.00;98.40
11264;DHT22;5689;48.798;9.070;2024-02-04T12:12:19;15.50;96.80
11264;DHT22;5689;48.798;9.070;2024-02-04T12:14:48;14.50;97.70
11264;DHT22;5689;48.798;9.070;2024-02-04T12:17:17;14.40;98.30
11264;DHT22;5689;48.798;9.070;2024-02-04T12:19:48;15.10;97.50
11264;DHT22;5689;48.798;9.070;2024-02-04T12:22:17;15.50;96.30
11264;DHT22;5689;48.798;9.070;2024-02-04T12:24:45;14.50;97.10
11264;DHT22;5689;48.798;9.070;2024-02-04T12:27:15;13.10;99.10
11264;DHT22;5689;48.798;9.070;2024-02-04T12:29:44;12.50;99.90
11264;DHT22;5689;48.798;9.070;2024-02-04T12:32:13;12.00;99.90
11264;DHT22;5689;48.798;9.070;2024-02-04T12:34:48;12.20;99.90
11264;DHT22;5689;48.798;9.070;2024-02-04T12:37:20;12.10;99.90
11264;DHT22;5689;48.798;9.070;2024-02-04T12:39:48;12.70;99.90
11264;DHT22;5689;48.798;9.070;2024-02-04T12:42:17;13.10;99.90
11264;DHT22;5689;48.798;9.070;2024-02-04T12:44:47;14.70;98.50
11264;DHT22;5689;48.798;9.070;2024-02-04T12:47:19;14.90;97.80
11264;DHT22;5689;48.798;9.070;2024-02-04T12:49:49;15.60;96.90
11264;DHT22;5689;48.798;9.070;2024-02-04T12:52:21;15.80;96.90
11264;DHT22;5689;48.798;9.070;2024-02-04T12:54:49;16.80;95.20
11264;DHT22;5689;48.798;9.070;2024-02-04T12:57:22;17.00;94.90
11264;DHT22;5689;48.798;9.070;2024-02-04T12:59:51;16.20;94.60
11264;DHT22;5689;48.798;9.070;2024-02-04T13:02:19;15.00;96.90
11264;DHT22;5689;48.798;9.070;2024-02-04T13:04:49;15.30;96.60
11264;DHT22;5689;48.798;9.070;2024-02-04T13:07:19;15.40;96.90
11264;DHT22;5689;48.798;9.070;2024-02-04T13:09:57;15.70;95.90
11264;DHT22;5689;48.798;9.070;2024-02-04T13:12:25;15.00;96.70
11264;DHT22;5689;48.798;9.070;2024-02-04T13:14:54;15.10;96.50
11264;DHT22;5689;48.798;9.070;2024-02-04T13:17:22;13.90;98.20
11264;DHT22;5689;48.798;9.070;2024-02-04T13:19:52;15.70;96.20
11264;DHT22;5689;48.798;9.070;2024-02-04T13:22:20;15.10;96.10
11264;DHT22;5689;48.798;9.070;2024-02-04T13:24:48;15.00;96.40
11264;DHT22;5689;48.798;9.070;2024-02-04T13:27:16;14.20;97.00
11264;DHT22;5689;48.798;9.070;2024-02-04T13:29:44;13.20;98.90
11264;DHT22;5689;48.798;9.070;2024-02-04T13:32:14;13.30;98.80
11264;DHT22;5689;48.798;9.070;2024-02-04T13:34:42;13.00;99.20
11264;DHT22;5689;48.798;9.070;2024-02-04T13:37:12;12.80;99.60
11264;DHT22;5689;48.798;9.070;2024-02-04T13:39:40;13.00;99.90
11264;DHT22;5689;48.798;9.070;2024-02-04T13:42:08;12.90;99.90
11264;DHT22;5689;48.798;9.070;2024-02-04T13:44:37;12.70;99.90
11264;DHT22;5689;48.798;9.070;2024-02-04T13:47:05;13.50;99.40
11264;DHT22;5689;48.798;9.070;2024-02-04T13:49:34;13.50;98.90
11264;DHT22;5689;48.798;9.070;2024-02-04T13:52:02;13.10;99.40
11264;DHT22;5689;48.798;9.070;2024-02-04T13:54:31;13.30;99.40
11264;DHT22;5689;48.798;9.070;2024-02-04T13:57:00;13.00;99.90
11264;DHT22;5689;48.798;9.070;2024-02-04T13:59:28;13.10;99.90
11264;DHT22;5689;48.798;9.070;2024-02-04T14:01:56;13.00;99.80
11264;DHT22;5689;48.798;9.070;2024-02-04T14:04:25;13.10;99.90
11264;DHT22;5689;48.798;9.070;2024-02-04T14:06:53;14.00;98.80
11264;DHT22;5689;48.798;9.070;2024-02-04T14:09:21;14.10;98.10
11264;DHT22;5689;48.798;9.070;2024-02-04T14:11:51;13.80;98.70
11264;DHT22;5689;48.798;9.070;2024-02-04T14:14:23;13.80;99.00
11264;DHT22;5689;48.798;9.070;2024-02-04T14:16:51;13.70;98.80
11264;DHT22;5689;48.798;9.070;2024-02-04T14:19:19;13.00;99.90
11264;DHT22;5689;48.798;9.070;2024-02-04T14:21:47;12.50;99.90
11264;DHT22;5689;48.798;9.070;2024-02-04T14:24:15;12.30;99.90
11264;DHT22;5689;48.798;9.070;2024-02-04T14:26:43;12.30;99.90
11264;DHT22;5689;48.798;9.070;2024-02-04T14:29:13;12.00;99.90
11264;DHT22;5689;48.798;9.070;2024-02-04T14:31:41;11.70;99.90
11264;DHT22;5689;48.798;9.070;2024-02-04T14:34:10;11.80;99.90
11264;DHT22;5689;48.798;9.070;2024-02-04T14:36:38;11.90;99.90
11264;DHT22;5689;48.798;9.070;2024-02-04T14:39:07;11.80;99.90
11264;DHT22;5689;48.798;9.070;2024-02-04T14:41:35;11.60;99.90
11264;DHT22;5689;48.798;9.070;2024-02-04T14:44:04;11.60;99.90
11264;DHT22;5689;48.798;9.070;2024-02-04T14:46:35;11.70;99.90
11264;DHT22;5689;48.798;9.070;2024-02-04T14:49:04;11.60;99.90
11264;DHT22;5689;48.798;9.070;2024-02-04T14:51:32;11.60;99.90
11264;DHT22;5689;48.798;9.070;2024-02-04T14:54:03;11.40;99.90
11264;DHT22;5689;48.798;9.070;2024-02-04T14:56:36;11.50;99.90
11264;DHT22;5689;48.798;9.070;2024-02-04T14:59:04;11.40;99.90
11264;DHT22;5689;48.798;9.070;2024-02-04T15:01:37;11.40;99.90
11264;DHT22;5689;48.798;9.070;2024-02-04T15:04:06;11.40;99.90
11264;DHT22;5689;48.798;9.070;2024-02-04T15:06:34;11.40;99.90
11264;DHT22;5689;48.798;9.070;2024-02-04T15:09:03;11.30;99.90
11264;DHT22;5689;48.798;9.070;2024-02-04T15:11:32;11.20;99.90
11264;DHT22;5689;48.798;9.070;2024-02-04T15:14:01;11.10;99.90
11264;DHT22;5689;48.798;9.070;2024-02-04T15:16:29;11.00;99.90
11264;DHT22;5689;48.798;9.070;2024-02-04T15:19:00;11.00;99.90
11264;DHT22;5689;48.798;9.070;2024-02-04T15:21:28;11.00;99.90
11264;DHT22;5689;48.798;9.070;2024-02-04T15:23:57;11.00;99.90
11264;DHT22;5689;48.798;9.070;2024-02-04T15:26:31;10.90;99.90
11264;DHT22;5689;48.798;9.070;2024-02-04T15:29:02;10.80;99.90
11264;DHT22;5689;48.798;9.070;2024-02-04T15:31:31;10.70;99.90
11264;DHT22;5689;48.798;9.070;2024-02-04T15:34:03;10.70;99.90
11264;DHT22;5689;48.798;9.070;2024-02-04T15:36:32;10.70;99.90
11264;DHT22;5689;48.798;9.070;2024-02-04T15:39:03;10.60;99.90
11264;DHT22;5689;48.798;9.070;2024-02-04T15:41:31;10.60;99.90
11264;DHT22;5689;48.798;9.070;2024-02-04T15:44:00;10.50;99.90
11264;DHT22;5689;48.798;9.070;2024-02-04T15:46:28;10.40;99.90
11264;DHT22;5689;48.798;9.070;2024-02-04T15:48:59;10.50;99.90
11264;DHT22;5689;48.798;9.070;2024-02-04T15:51:33;10.50;99.90
11264;DHT22;5689;48.798;9.070;2024-02-04T15:54:01;10.40;99.90
11264;DHT22;5689;48.798;9.070;2024-02-04T15:56:32;10.40;99.90
11264;DHT22;5689;48.798;9.070;2024-02-04T15:59:06;10.20;99.90
11264;DHT22;5689;48.798;9.070;2024-02-04T16:01:37;10.20;99.90
11264;DHT22;5689;48.798;9.070;2024-02-04T16:04:08;10.20;99.90
11264;DHT22;5689;48.798;9.070;2024-02-04T16:06:39;10.20;99.90
11264;DHT22;5689;48.798;9.070;2024-02-04T16:09:07;10.10;99.90